Time;durP1;ratioP1;P1;durP2;ratioP2;P2;SDS_P1;SDS_P2;PMS_P1;PMS_P2;Temp;Humidity;BMP_temperature;BMP_pressure;BME280_temperature;BME280_humidity;BME280_pressure;Samples;Min_cycle;Max_cycle;Signal;HPM_P1;HPM_P2
2021/06/12 00:01:35;;;;;;;3.00;1.77;;;;;;;14.30;74.28;93438.53;5068897;28;20032;-42
2021/06/12 00:04:00;;;;;;;1.60;1.50;;;;;;;14.23;74.44;93436.53;5070356;28;20028;-43
2021/06/12 00:06:26;;;;;;;1.50;1.40;;;;;;;14.13;74.69;93436.47;5070352;28;20429;-42
2021/06/12 00:08:51;;;;;;;2.05;1.88;;;;;;;14.08;75.01;93442.28;5070121;28;20020;-45
2021/06/12 00:11:17;;;;;;;1.27;1.17;;;;;;;14.20;74.44;93448.81;5072313;28;20020;-42
2021/06/12 00:13:42;;;;;;;2.17;1.88;;;;;;;14.11;74.88;93444.66;5073880;28;20024;-45
2021/06/12 00:16:07;;;;;;;1.60;1.50;;;;;;;14.06;75.21;93433.78;5079128;28;20039;-46
2021/06/12 00:18:33;;;;;;;1.48;1.38;;;;;;;14.14;74.17;93440.72;5088536;28;20013;-45
2021/06/12 00:20:58;;;;;;;2.15;1.42;;;;;;;13.98;74.92;93441.47;5089780;28;20472;-46
2021/06/12 00:23:25;;;;;;;1.75;1.65;;;;;;;14.00;74.99;93427.75;5090127;28;20107;-45
2021/06/12 00:25:50;;;;;;;2.58;1.88;;;;;;;13.96;75.24;93432.97;5090099;28;20031;-45
2021/06/12 00:28:16;;;;;;;1.63;1.02;;;;;;;13.90;75.30;93432.50;5071874;28;20473;-45
2021/06/12 00:30:41;;;;;;;2.05;1.50;;;;;;;13.89;75.27;93425.44;5069796;28;20401;-44
2021/06/12 00:33:07;;;;;;;1.55;1.45;;;;;;;13.78;75.53;93425.94;5070935;28;20028;-43
2021/06/12 00:35:33;;;;;;;3.60;1.73;;;;;;;13.76;75.50;93431.31;5089615;28;20027;-43
2021/06/12 00:37:59;;;;;;;1.75;1.15;;;;;;;13.80;75.07;93434.41;5090003;28;20051;-44
2021/06/12 00:40:24;;;;;;;1.58;1.48;;;;;;;13.82;74.84;93423.50;5089659;28;20485;-44
2021/06/12 00:42:51;;;;;;;1.25;1.15;;;;;;;13.76;74.97;93423.00;5089571;28;20034;-44
2021/06/12 00:45:20;;;;;;;2.35;1.67;;;;;;;13.73;74.68;93416.53;5089614;28;20031;-43
2021/06/12 00:47:50;;;;;;;1.45;1.35;;;;;;;13.75;74.75;93430.59;5089829;28;20055;-47
2021/06/12 00:50:17;;;;;;;2.15;1.77;;;;;;;13.55;76.09;93437.25;5089843;28;20038;-43
2021/06/12 00:52:43;;;;;;;1.52;1.42;;;;;;;13.52;76.34;93436.34;5089413;28;20168;-43
2021/06/12 00:55:09;;;;;;;1.95;1.65;;;;;;;13.55;76.23;93421.38;5087066;28;20107;-43
2021/06/12 00:57:35;;;;;;;8.02;2.83;;;;;;;13.55;76.19;93432.47;5072764;28;20045;-43
2021/06/12 01:00:03;;;;;;;2.20;1.92;;;;;;;13.53;75.81;93426.75;5068192;28;20466;-44
2021/06/12 01:02:28;;;;;;;1.40;1.30;;;;;;;13.63;75.43;93433.13;5069666;28;20025;-43
2021/06/12 01:04:53;;;;;;;2.90;1.75;;;;;;;13.57;75.85;93424.31;5069526;28;20447;-43
2021/06/12 01:07:19;;;;;;;2.35;1.83;;;;;;;13.59;75.69;93432.03;5069438;28;20440;-43
2021/06/12 01:09:44;;;;;;;7.35;2.20;;;;;;;13.71;74.75;93438.56;5069191;28;20470;-43
2021/06/12 01:12:19;;;;;;;1.88;1.63;;;;;;;13.66;74.44;93437.50;5072472;28;20517;-45
2021/06/12 01:14:49;;;;;;;1.65;1.45;;;;;;;13.41;75.53;93436.81;5088148;28;20024;-44
2021/06/12 01:17:28;;;;;;;2.40;1.77;;;;;;;13.30;76.15;93442.09;5087981;28;20023;-44
2021/06/12 01:20:19;;;;;;;1.70;1.42;;;;;;;13.36;75.98;93440.56;5089560;28;20103;-44
2021/06/12 01:22:47;;;;;;;1.98;1.52;;;;;;;13.33;75.82;93438.19;5088746;28;20566;-43
2021/06/12 01:25:12;;;;;;;1.70;1.60;;;;;;;13.34;75.94;93439.66;5089414;28;20032;-44
2021/06/12 01:28:24;;;;;;;2.20;1.30;;;;;;;13.30;76.24;93437.28;5089306;28;20036;-45
2021/06/12 01:30:53;;;;;;;2.10;1.77;;;;;;;13.34;76.33;93443.16;5071181;28;20066;-44
2021/06/12 01:33:18;;;;;;;2.05;1.80;;;;;;;13.42;75.92;93449.41;5084948;28;20028;-45
2021/06/12 01:35:50;;;;;;;2.95;1.88;;;;;;;13.30;75.77;93440.06;5074806;28;20028;-43
2021/06/12 01:38:24;;;;;;;1.60;1.27;;;;;;;13.27;75.55;93443.97;5088067;28;20423;-44
2021/06/12 01:40:51;;;;;;;4.75;2.20;;;;;;;13.36;74.91;93443.31;5089314;28;20096;-45
2021/06/12 01:43:18;;;;;;;1.52;1.35;;;;;;;13.34;74.59;93429.28;5087788;28;20023;-44
2021/06/12 01:45:46;;;;;;;4.03;2.38;;;;;;;13.32;74.60;93431.91;5088038;28;20412;-43
2021/06/12 01:48:12;;;;;;;1.17;1.10;;;;;;;13.53;74.60;93437.09;5087680;28;20033;-43
2021/06/12 01:50:39;;;;;;;1.88;1.73;;;;;;;13.42;74.84;93438.31;5084955;28;20524;-46
2021/06/12 01:53:05;;;;;;;1.42;1.25;;;;;;;13.40;74.78;93429.81;5067220;28;20494;-44
2021/06/12 01:55:33;;;;;;;2.53;1.67;;;;;;;13.25;75.67;93434.75;5083476;28;20032;-46
2021/06/12 01:58:00;;;;;;;1.73;1.63;;;;;;;13.30;74.90;93437.28;5088703;28;20055;-43
2021/06/12 02:00:26;;;;;;;1.85;1.58;;;;;;;13.36;74.27;93440.56;5088533;28;20110;-45
2021/06/12 02:02:52;;;;;;;2.13;1.35;;;;;;;13.28;74.45;93442.66;5087916;28;20104;-44
2021/06/12 02:05:23;;;;;;;3.20;1.48;;;;;;;13.19;75.01;93442.56;5087627;28;20051;-43
2021/06/12 02:07:50;;;;;;;1.38;1.25;;;;;;;13.11;75.46;93437.06;5089316;28;20019;-43
2021/06/12 02:10:21;;;;;;;1.55;1.45;;;;;;;13.03;75.87;93443.94;5088553;28;20081;-44
2021/06/12 02:12:49;;;;;;;3.13;1.73;;;;;;;12.91;76.26;93440.84;5092569;28;20094;-48
2021/06/12 02:15:15;;;;;;;2.05;1.55;;;;;;;12.94;76.20;93448.06;5092288;28;20512;-46
2021/06/12 02:17:41;;;;;;;1.35;1.25;;;;;;;12.97;76.02;93440.66;5091203;28;20020;-49
2021/06/12 02:20:09;;;;;;;2.10;1.65;;;;;;;13.04;75.76;93437.09;5092587;28;20024;-43
2021/06/12 02:22:45;;;;;;;1.23;1.13;;;;;;;13.08;75.53;93446.50;5091122;28;20028;-44
2021/06/12 02:25:12;;;;;;;1.67;1.33;;;;;;;12.87;76.53;93438.50;5092226;28;20608;-44
2021/06/12 02:27:40;;;;;;;2.60;1.20;;;;;;;12.82;76.98;93447.75;5092381;28;20447;-43
2021/06/12 02:30:07;;;;;;;2.53;1.88;;;;;;;13.04;76.42;93445.41;5091985;28;20027;-47
2021/06/12 02:32:40;;;;;;;13.48;1.88;;;;;;;13.10;76.02;93446.69;5090960;28;20071;-47
2021/06/12 02:35:08;;;;;;;2.78;1.50;;;;;;;13.15;75.67;93442.94;5090420;28;20031;-45
2021/06/12 02:37:34;;;;;;;1.80;1.50;;;;;;;13.05;75.84;93436.56;5092103;28;20020;-46
2021/06/12 02:39:59;;;;;;;1.63;1.13;;;;;;;13.17;75.72;93445.88;5091832;28;20032;-46
2021/06/12 02:42:24;;;;;;;2.22;1.35;;;;;;;13.16;75.88;93449.97;5092026;28;20028;-51
2021/06/12 02:44:50;;;;;;;1.77;1.15;;;;;;;13.07;75.97;93450.59;5092005;28;20085;-52
2021/06/12 02:47:17;;;;;;;1.50;1.40;;;;;;;13.15;75.62;93445.72;5084603;28;20594;-51
2021/06/12 02:49:43;;;;;;;2.97;1.40;;;;;;;13.05;75.55;93444.13;5070183;28;20486;-52
2021/06/12 02:52:16;;;;;;;2.97;1.50;;;;;;;13.07;75.68;93455.38;5071682;28;20710;-48
2021/06/12 02:54:45;;;;;;;3.60;1.80;;;;;;;13.12;75.36;93452.41;5080348;28;20515;-49
2021/06/12 02:57:11;;;;;;;1.55;1.45;;;;;;;13.07;75.82;93458.16;5090207;28;20117;-51
2021/06/12 02:59:37;;;;;;;1.73;1.35;;;;;;;13.04;75.85;93457.22;5090627;28;20031;-49
2021/06/12 03:02:03;;;;;;;2.22;1.70;;;;;;;12.95;76.39;93460.59;5090574;28;20023;-47
2021/06/12 03:04:30;;;;;;;1.90;1.52;;;;;;;12.78;77.23;93457.75;5091484;28;20417;-46
2021/06/12 03:06:56;;;;;;;1.55;1.17;;;;;;;12.85;77.26;93459.75;5091267;28;20030;-48
2021/06/12 03:09:24;;;;;;;2.47;1.88;;;;;;;13.03;77.02;93460.56;5090496;28;20050;-47
2021/06/12 03:11:51;;;;;;;3.10;2.30;;;;;;;12.98;76.89;93462.25;5090491;28;20020;-51
2021/06/12 03:14:18;;;;;;;2.88;2.00;;;;;;;13.06;76.30;93465.72;5090363;28;20023;-47
2021/06/12 03:16:44;;;;;;;3.38;2.97;;;;;;;13.04;76.75;93471.06;5089789;28;20111;-46
2021/06/12 03:19:12;;;;;;;2.17;2.03;;;;;;;13.14;76.43;93466.44;5091065;28;20020;-47
2021/06/12 03:21:37;;;;;;;3.20;2.65;;;;;;;13.16;75.94;93466.59;5089703;28;20099;-45
2021/06/12 03:24:04;;;;;;;4.57;2.85;;;;;;;13.18;75.58;93472.31;5089718;28;20108;-45
2021/06/12 03:26:31;;;;;;;2.88;2.22;;;;;;;12.96;76.56;93467.63;5090901;28;20845;-47
2021/06/12 03:28:57;;;;;;;3.30;2.50;;;;;;;13.21;76.27;93473.22;5089881;28;20070;-45
2021/06/12 03:31:23;;;;;;;3.42;2.05;;;;;;;13.23;75.93;93465.78;5088908;28;20020;-47
2021/06/12 03:33:48;;;;;;;2.50;1.85;;;;;;;13.18;76.02;93472.31;5083490;28;20089;-47
2021/06/12 03:36:14;;;;;;;3.33;2.30;;;;;;;13.14;76.26;93476.78;5080514;28;20117;-45
2021/06/12 03:38:40;;;;;;;5.35;2.72;;;;;;;13.22;76.43;93472.66;5089727;28;20637;-47
2021/06/12 03:41:05;;;;;;;2.60;1.73;;;;;;;13.31;75.98;93472.03;5089329;28;20048;-48
2021/06/12 03:43:32;;;;;;;1.85;1.63;;;;;;;13.42;75.98;93481.94;5082295;28;20505;-48
2021/06/12 03:45:59;;;;;;;1.75;1.55;;;;;;;13.42;76.08;93479.91;5069422;28;20016;-46
2021/06/12 03:48:25;;;;;;;3.47;1.60;;;;;;;13.42;76.49;93476.38;5070079;28;20028;-47
2021/06/12 03:50:55;;;;;;;3.70;2.03;;;;;;;13.37;77.24;93482.88;5068985;28;20032;-47
2021/06/12 03:53:21;;;;;;;6.38;2.90;;;;;;;13.32;77.09;93484.59;5070234;28;20056;-43
2021/06/12 03:55:50;;;;;;;6.88;3.95;;;;;;;13.33;76.79;93474.97;5088272;28;20055;-45
2021/06/12 03:58:16;;;;;;;3.20;2.83;;;;;;;13.44;76.06;93479.34;5090734;28;20031;-43
2021/06/12 04:00:44;;;;;;;4.20;2.65;;;;;;;13.54;76.27;93480.91;5090199;28;20554;-44
2021/06/12 04:03:09;;;;;;;3.78;2.60;;;;;;;13.66;75.86;93481.19;5090393;28;20051;-43
2021/06/12 04:05:34;;;;;;;5.43;3.10;;;;;;;13.65;75.84;93486.00;5090456;28;20058;-46
2021/06/12 04:08:00;;;;;;;2.90;2.03;;;;;;;13.71;75.72;93494.06;5085080;28;20024;-46
2021/06/12 04:10:25;;;;;;;4.95;2.83;;;;;;;13.79;75.51;93485.69;5090596;28;20051;-47
2021/06/12 04:12:51;;;;;;;12.43;3.33;;;;;;;13.81;75.57;93496.97;5090525;28;20099;-48
2021/06/12 04:15:16;;;;;;;4.25;2.72;;;;;;;13.86;75.27;93493.22;5090223;28;20509;-44
2021/06/12 04:17:44;;;;;;;4.65;2.58;;;;;;;13.85;75.01;93488.97;5090426;28;20030;-45
2021/06/12 04:20:12;;;;;;;5.13;1.90;;;;;;;13.79;75.34;93480.88;5090373;28;20106;-45
2021/06/12 04:22:39;;;;;;;8.05;2.70;;;;;;;13.94;75.39;93486.28;5090132;28;20023;-43
2021/06/12 04:25:05;;;;;;;2.88;2.00;;;;;;;13.92;75.63;93488.91;5089934;28;20085;-45
2021/06/12 04:27:32;;;;;;;13.15;5.18;;;;;;;14.02;75.27;93488.97;5090172;28;20028;-46
2021/06/12 04:29:57;;;;;;;3.92;2.72;;;;;;;13.99;75.98;93490.84;5089501;28;20028;-44
2021/06/12 04:32:22;;;;;;;3.45;2.05;;;;;;;14.14;75.83;93495.53;5089790;28;20031;-44
2021/06/12 04:34:48;;;;;;;4.35;2.40;;;;;;;14.07;75.59;93497.09;5073342;28;20035;-43
2021/06/12 04:37:13;;;;;;;3.53;2.70;;;;;;;14.13;75.48;93496.81;5087570;28;20016;-43
2021/06/12 04:39:39;;;;;;;6.95;2.50;;;;;;;14.11;75.66;93500.19;5083411;28;20086;-43
2021/06/12 04:42:05;;;;;;;3.53;2.28;;;;;;;14.14;75.74;93499.03;5069599;28;20028;-47
2021/06/12 04:44:30;;;;;;;3.30;2.03;;;;;;;14.30;75.46;93496.84;5069625;28;20771;-47
2021/06/12 04:46:56;;;;;;;2.95;2.40;;;;;;;14.44;75.07;93498.00;5069428;28;20187;-45
2021/06/12 04:49:21;;;;;;;3.38;2.17;;;;;;;14.55;74.57;93496.78;5069278;28;20016;-43
2021/06/12 04:51:46;;;;;;;3.22;2.58;;;;;;;14.53;75.12;93491.06;5071955;28;20056;-44
2021/06/12 04:54:12;;;;;;;4.10;2.65;;;;;;;14.61;75.13;93492.44;5077267;28;20031;-43
2021/06/12 04:56:38;;;;;;;4.07;2.47;;;;;;;14.76;74.81;93491.50;5088863;28;20047;-44
2021/06/12 04:59:04;;;;;;;2.05;1.85;;;;;;;14.74;74.70;93494.88;5077996;28;20061;-45
2021/06/12 05:01:29;;;;;;;3.67;2.60;;;;;;;14.78;74.89;93492.41;5080894;28;20509;-42
2021/06/12 05:03:54;;;;;;;4.53;2.17;;;;;;;14.88;74.83;93495.22;5071955;28;20489;-42
2021/06/12 05:06:20;;;;;;;4.10;2.58;;;;;;;15.03;74.19;93500.59;5079948;28;20024;-43
2021/06/12 05:08:45;;;;;;;2.63;2.08;;;;;;;14.97;74.32;93495.28;5087247;28;20016;-45
2021/06/12 05:11:11;;;;;;;3.50;2.22;;;;;;;15.07;74.11;93498.84;5069251;28;20025;-44
2021/06/12 05:13:36;;;;;;;4.28;2.00;;;;;;;15.17;73.80;93501.69;5069104;28;20040;-44
2021/06/12 05:16:03;;;;;;;2.25;1.85;;;;;;;15.23;73.45;93493.09;5089377;28;20024;-44
2021/06/12 05:18:39;;;;;;;3.30;1.75;;;;;;;15.43;72.86;93500.22;5089597;28;20028;-44
2021/06/12 05:21:04;;;;;;;3.40;1.95;;;;;;;15.54;73.00;93503.22;5088867;28;20089;-45
2021/06/12 05:23:30;;;;;;;7.10;3.15;;;;;;;15.66;72.53;93506.91;5082563;28;20032;-43
2021/06/12 05:25:56;;;;;;;2.83;2.13;;;;;;;15.71;72.56;93496.81;5069279;28;20111;-53
2021/06/12 05:28:22;;;;;;;2.65;2.20;;;;;;;15.78;71.65;93504.31;5069279;28;20104;-53
2021/06/12 05:30:48;;;;;;;3.10;1.90;;;;;;;15.84;71.45;93505.53;5069052;28;20494;-49
2021/06/12 05:33:13;;;;;;;3.30;1.88;;;;;;;15.89;71.86;93506.56;5069187;28;20032;-49
2021/06/12 05:35:39;;;;;;;2.83;2.50;;;;;;;15.95;71.96;93512.56;5070085;28;20036;-45
2021/06/12 05:38:05;;;;;;;2.65;2.08;;;;;;;15.99;71.34;93514.91;5068929;28;20145;-44
2021/06/12 05:40:30;;;;;;;4.32;1.75;;;;;;;15.98;69.87;93519.78;5069326;28;20028;-42
2021/06/12 05:42:55;;;;;;;3.08;1.80;;;;;;;15.96;70.76;93522.38;5069215;28;20470;-44
2021/06/12 05:45:21;;;;;;;4.18;2.13;;;;;;;15.97;70.52;93518.28;5069758;28;20094;-43
2021/06/12 05:47:47;;;;;;;1.38;1.27;;;;;;;16.00;70.27;93527.53;5072465;28;20037;-43
2021/06/12 05:50:12;;;;;;;1.63;1.50;;;;;;;16.00;70.13;93524.75;5072455;28;20024;-44
2021/06/12 05:52:38;;;;;;;1.90;1.75;;;;;;;15.99;70.10;93526.06;5072551;28;20028;-47
2021/06/12 05:55:04;;;;;;;2.33;1.75;;;;;;;15.97;70.96;93520.34;5084351;28;20515;-47
2021/06/12 05:57:29;;;;;;;1.90;1.55;;;;;;;16.05;71.06;93512.63;5092730;28;20119;-44
2021/06/12 05:59:55;;;;;;;2.30;1.77;;;;;;;16.26;70.45;93526.72;5057793;28;20489;-45
2021/06/12 06:02:20;;;;;;;1.63;1.40;;;;;;;16.31;70.17;93522.91;5092744;28;20024;-44
2021/06/12 06:04:46;;;;;;;3.20;2.38;;;;;;;16.37;69.95;93520.56;5092505;28;20024;-43
2021/06/12 06:07:11;;;;;;;1.95;1.42;;;;;;;16.38;69.69;93499.75;5092741;28;20028;-42
2021/06/12 06:09:37;;;;;;;1.67;1.50;;;;;;;16.57;68.94;93528.38;5091346;28;20024;-43
2021/06/12 06:12:02;;;;;;;5.63;1.17;;;;;;;16.68;69.09;93524.28;5092753;28;20032;-44
2021/06/12 06:14:28;;;;;;;1.70;1.60;;;;;;;16.74;69.46;93521.91;5092787;28;20107;-42
2021/06/12 06:16:53;;;;;;;2.55;1.80;;;;;;;16.85;68.45;93523.41;5092506;28;20042;-43
2021/06/12 06:19:19;;;;;;;5.15;2.15;;;;;;;16.91;68.19;93521.78;5092321;28;20078;-43
2021/06/12 06:21:44;;;;;;;3.03;1.92;;;;;;;16.94;68.25;93517.06;5092256;28;20031;-43
2021/06/12 06:24:10;;;;;;;3.60;2.08;;;;;;;17.07;67.99;93519.38;5092689;28;20024;-43
2021/06/12 06:26:35;;;;;;;3.55;2.28;;;;;;;17.07;68.08;93513.81;5091871;28;20058;-49
2021/06/12 06:29:01;;;;;;;3.25;2.10;;;;;;;17.09;68.30;93516.75;5091953;28;20035;-44
2021/06/12 06:31:26;;;;;;;2.00;1.80;;;;;;;17.21;67.40;93512.03;5091912;28;20028;-45
2021/06/12 06:33:52;;;;;;;2.58;2.22;;;;;;;17.30;67.39;93511.28;5083973;28;20024;-50
2021/06/12 06:36:17;;;;;;;1.70;1.58;;;;;;;17.38;66.39;93517.41;5081763;28;20032;-43
2021/06/12 06:38:42;;;;;;;4.68;1.98;;;;;;;17.43;65.84;93516.38;5091934;28;20036;-45
2021/06/12 06:41:09;;;;;;;1.75;1.38;;;;;;;17.51;66.12;93516.22;5092078;28;20482;-43
2021/06/12 06:43:34;;;;;;;3.85;1.70;;;;;;;17.66;65.01;93515.88;5092008;28;20023;-44
2021/06/12 06:46:00;;;;;;;1.98;1.42;;;;;;;17.61;64.55;93514.88;5091729;28;20046;-44
2021/06/12 06:48:25;;;;;;;2.30;1.75;;;;;;;17.60;65.05;93521.78;5091042;28;20028;-43
2021/06/12 06:50:51;;;;;;;2.20;1.60;;;;;;;17.71;64.56;93520.44;5092067;28;20081;-43
2021/06/12 06:53:16;;;;;;;3.13;1.80;;;;;;;17.86;64.96;93514.47;5089013;28;20036;-45
2021/06/12 06:55:42;;;;;;;1.60;1.50;;;;;;;17.99;63.76;93506.34;5087411;28;20035;-44
2021/06/12 06:58:07;;;;;;;1.80;1.45;;;;;;;18.16;64.75;93513.72;5089477;28;20719;-48
2021/06/12 07:00:33;;;;;;;3.15;1.80;;;;;;;18.19;64.65;93516.06;5089875;28;20039;-44
2021/06/12 07:03:00;;;;;;;2.00;1.50;;;;;;;18.08;63.64;93511.13;5089487;28;20023;-43
2021/06/12 07:05:26;;;;;;;1.67;1.42;;;;;;;18.15;64.01;93490.63;5090152;28;20035;-45
2021/06/12 07:07:51;;;;;;;2.42;2.22;;;;;;;18.40;63.77;93497.84;5090306;28;20089;-46
2021/06/12 07:10:17;;;;;;;4.60;2.13;;;;;;;18.53;63.72;93502.94;5090838;28;20032;-47
2021/06/12 07:12:43;;;;;;;2.60;1.50;;;;;;;18.68;63.50;93506.03;5082947;28;20520;-44
2021/06/12 07:15:09;;;;;;;1.77;1.63;;;;;;;18.82;63.14;93503.41;5081862;28;20566;-48
2021/06/12 07:17:34;;;;;;;6.22;1.80;;;;;;;19.01;60.64;93494.13;5076184;28;20040;-45
2021/06/12 07:20:01;;;;;;;4.25;2.05;;;;;;;19.26;61.29;93497.84;5068394;28;20884;-46
2021/06/12 07:22:27;;;;;;;2.92;2.13;;;;;;;19.56;61.67;93496.22;5068345;28;20024;-45
2021/06/12 07:24:54;;;;;;;2.00;1.58;;;;;;;20.08;60.89;93507.09;5068473;28;20429;-50
2021/06/12 07:27:20;;;;;;;2.97;1.95;;;;;;;20.61;58.05;93478.00;5068072;28;20036;-47
2021/06/12 07:29:45;;;;;;;1.42;1.33;;;;;;;21.29;57.33;93497.28;5084345;28;20035;-47
2021/06/12 07:32:11;;;;;;;4.90;2.20;;;;;;;21.83;53.96;93486.19;5088949;28;20035;-45
2021/06/12 07:34:36;;;;;;;2.60;1.55;;;;;;;22.76;50.99;93485.38;5074600;28;20536;-47
2021/06/12 07:37:02;;;;;;;2.97;1.77;;;;;;;23.84;46.76;93496.25;5084961;28;20035;-45
2021/06/12 07:39:28;;;;;;;2.67;1.50;;;;;;;24.95;44.38;93481.34;5085723;28;20491;-42
2021/06/12 07:41:54;;;;;;;2.47;1.40;;;;;;;26.25;41.68;93487.88;5067777;28;20040;-43
2021/06/12 07:44:20;;;;;;;1.30;1.10;;;;;;;27.30;39.26;93488.69;5067537;28;20029;-49
2021/06/12 07:46:46;;;;;;;0.98;0.95;;;;;;;27.02;38.90;93477.16;5067494;28;20133;-41
2021/06/12 07:49:12;;;;;;;1.20;1.10;;;;;;;27.63;38.16;93474.94;5067407;28;20240;-41
2021/06/12 07:51:39;;;;;;;3.58;1.40;;;;;;;28.35;36.38;93465.00;5067265;28;20028;-49
2021/06/12 07:54:04;;;;;;;1.88;0.95;;;;;;;29.56;34.21;93482.41;5070754;28;20028;-44
2021/06/12 07:56:30;;;;;;;4.57;1.73;;;;;;;30.34;32.97;93480.66;5087198;28;20056;-42
2021/06/12 07:58:55;;;;;;;4.60;1.27;;;;;;;30.97;31.87;93476.25;5087828;28;20047;-44
2021/06/12 08:01:21;;;;;;;3.20;1.23;;;;;;;31.31;29.55;93479.69;5088192;28;20035;-44
2021/06/12 08:03:46;;;;;;;0.90;0.90;;;;;;;31.86;27.69;93476.31;5085146;28;20066;-45
2021/06/12 08:06:12;;;;;;;1.38;0.95;;;;;;;32.45;28.45;93472.16;5086706;28;20081;-43
2021/06/12 08:08:37;;;;;;;1.42;1.20;;;;;;;32.90;28.09;93477.00;5087403;28;20024;-43
2021/06/12 08:11:03;;;;;;;1.45;1.17;;;;;;;32.92;27.57;93469.88;5088151;28;20028;-45
2021/06/12 08:13:28;;;;;;;1.77;1.17;;;;;;;32.92;27.51;93468.44;5087743;28;20111;-45
2021/06/12 08:15:54;;;;;;;4.18;0.70;;;;;;;33.45;27.03;93471.84;5087451;28;20032;-44
2021/06/12 08:18:20;;;;;;;1.73;1.10;;;;;;;33.82;26.24;93470.75;5087790;28;20032;-44
2021/06/12 08:20:45;;;;;;;1.25;1.15;;;;;;;33.66;25.61;93467.75;5087926;28;20128;-43
2021/06/12 08:23:11;;;;;;;1.25;1.15;;;;;;;33.02;26.08;93478.59;5087665;28;20031;-45
2021/06/12 08:25:36;;;;;;;2.28;1.40;;;;;;;32.46;26.65;93459.31;5073214;28;20077;-45
2021/06/12 08:28:04;;;;;;;1.63;1.20;;;;;;;31.80;26.67;93466.94;5066967;28;20036;-43
2021/06/12 08:30:34;;;;;;;0.98;0.90;;;;;;;32.15;26.99;93463.19;5067435;28;20352;-44
2021/06/12 08:32:59;;;;;;;2.20;1.38;;;;;;;32.28;27.72;93466.94;5067191;28;20437;-44
2021/06/12 08:35:25;;;;;;;1.73;1.42;;;;;;;32.50;28.23;93467.25;5070331;28;20020;-43
2021/06/12 08:37:50;;;;;;;1.83;1.33;;;;;;;33.05;26.27;93462.91;5087667;28;20409;-45
2021/06/12 08:40:16;;;;;;;1.42;1.13;;;;;;;33.47;25.97;93466.16;5086965;28;20492;-42
2021/06/12 08:42:42;;;;;;;0.95;0.80;;;;;;;33.73;25.33;93459.94;5086349;28;20063;-43
2021/06/12 08:45:08;;;;;;;1.45;1.17;;;;;;;33.93;24.46;93457.94;5087274;28;20039;-43
2021/06/12 08:47:36;;;;;;;1.63;1.05;;;;;;;33.56;25.23;93462.69;5086733;28;20028;-47
2021/06/12 08:50:06;;;;;;;2.22;2.00;;;;;;;33.34;25.13;93453.16;5086102;28;20052;-45
2021/06/12 08:52:32;;;;;;;1.10;1.00;;;;;;;34.10;24.97;93453.06;5087037;28;20406;-43
2021/06/12 08:54:58;;;;;;;0.82;0.82;;;;;;;34.34;24.48;93448.19;5076064;28;20027;-44
2021/06/12 08:57:23;;;;;;;1.85;0.80;;;;;;;34.28;25.12;93445.25;5066644;28;20052;-43
2021/06/12 08:59:49;;;;;;;3.95;1.52;;;;;;;33.82;24.92;93442.13;5067261;28;20123;-43
2021/06/12 09:02:14;;;;;;;1.45;1.00;;;;;;;32.64;26.67;93458.81;5067461;28;20036;-42
2021/06/12 09:04:44;;;;;;;0.90;0.80;;;;;;;31.08;28.75;93446.50;5065866;28;20111;-43
2021/06/12 09:07:23;;;;;;;1.08;0.98;;;;;;;31.15;27.20;93443.03;5066452;28;20063;-43
2021/06/12 09:09:54;;;;;;;1.10;1.00;;;;;;;31.97;27.25;93440.09;5066826;28;20041;-42
2021/06/12 09:12:21;;;;;;;1.30;1.08;;;;;;;32.33;26.11;93442.72;5067189;28;20025;-43
2021/06/12 09:15:10;;;;;;;0.93;0.90;;;;;;;32.69;25.52;93431.72;5066805;28;20089;-44
2021/06/12 09:17:46;;;;;;;1.38;1.27;;;;;;;33.05;25.65;93440.00;5067593;28;20029;-43
2021/06/12 09:20:18;;;;;;;1.50;1.30;;;;;;;33.31;24.05;93428.81;5070962;28;20036;-43
2021/06/12 09:22:45;;;;;;;1.70;1.20;;;;;;;33.31;25.57;93437.41;5092861;28;20137;-43
2021/06/12 09:25:11;;;;;;;1.38;1.27;;;;;;;33.73;22.76;93434.88;5093564;28;20024;-43
2021/06/12 09:27:36;;;;;;;1.00;0.95;;;;;;;34.34;23.44;93439.59;5084680;28;20058;-44
2021/06/12 09:30:07;;;;;;;1.40;1.10;;;;;;;34.78;22.63;93435.47;5072873;28;20039;-44
2021/06/12 09:32:43;;;;;;;1.35;1.20;;;;;;;34.36;22.99;93438.88;5073036;28;20025;-43
2021/06/12 09:35:09;;;;;;;0.90;0.90;;;;;;;32.79;26.15;93438.28;5073143;28;20509;-41
2021/06/12 09:37:35;;;;;;;1.50;1.40;;;;;;;31.46;27.79;93430.03;5093122;28;20012;-43
2021/06/12 09:40:01;;;;;;;1.83;1.23;;;;;;;29.75;29.44;93438.81;5077112;28;20064;-42
2021/06/12 09:42:46;;;;;;;1.98;1.25;;;;;;;29.32;31.44;93433.50;5072024;28;20601;-42
2021/06/12 09:45:31;;;;;;;2.03;1.67;;;;;;;28.64;33.85;93437.41;5072482;28;20475;-46
2021/06/12 09:48:17;;;;;;;1.20;1.10;;;;;;;27.79;35.30;93437.78;5072569;28;20035;-43
2021/06/12 09:50:45;;;;;;;1.35;1.15;;;;;;;27.71;35.78;93426.94;5072755;28;20020;-45
2021/06/12 09:53:17;;;;;;;0.93;0.85;;;;;;;28.34;30.95;93428.75;5072416;28;20421;-44
2021/06/12 09:55:43;;;;;;;1.65;0.73;;;;;;;29.78;28.31;93422.47;5072686;28;20033;-46
2021/06/12 09:58:10;;;;;;;0.80;0.80;;;;;;;30.83;26.66;93416.78;5078118;28;20087;-45
2021/06/12 10:00:39;;;;;;;2.17;1.50;;;;;;;32.18;24.76;93416.09;5092810;28;20051;-44
2021/06/12 10:03:31;;;;;;;2.80;1.08;;;;;;;33.12;25.48;93419.31;5092470;28;20043;-46
2021/06/12 10:06:09;;;;;;;2.33;1.17;;;;;;;33.05;23.53;93420.00;5092866;28;20466;-46
2021/06/12 10:08:35;;;;;;;1.25;1.15;;;;;;;31.86;24.69;93422.06;5092164;28;20028;-44
2021/06/12 10:11:01;;;;;;;2.00;1.10;;;;;;;30.40;25.74;93411.69;5092668;28;20028;-42
2021/06/12 10:13:27;;;;;;;2.22;0.98;;;;;;;29.32;27.82;93399.38;5091235;28;20020;-44
2021/06/12 10:15:53;;;;;;;1.38;1.27;;;;;;;28.66;29.14;93412.63;5070906;28;20035;-42
2021/06/12 10:18:20;;;;;;;1.27;1.17;;;;;;;28.28;30.60;93420.81;5076135;28;20452;-43
2021/06/12 10:20:46;;;;;;;1.20;1.10;;;;;;;27.86;31.88;93422.41;5090003;28;20028;-45
2021/06/12 10:23:12;;;;;;;1.65;1.00;;;;;;;27.50;31.90;93413.53;5092469;28;20103;-42
2021/06/12 10:25:37;;;;;;;0.90;0.90;;;;;;;27.06;33.75;93414.94;5091300;28;20020;-44
2021/06/12 10:28:03;;;;;;;1.00;0.90;;;;;;;26.50;33.38;93405.25;5086956;28;20677;-43
2021/06/12 10:30:29;;;;;;;3.20;1.30;;;;;;;26.69;33.60;93400.94;5071486;28;20016;-46
2021/06/12 10:32:55;;;;;;;2.30;1.30;;;;;;;26.89;34.13;93399.53;5069953;28;20028;-42
2021/06/12 10:35:24;;;;;;;1.10;1.00;;;;;;;26.81;33.20;93409.88;5076041;28;20039;-45
2021/06/12 10:38:01;;;;;;;1.33;1.20;;;;;;;26.45;34.60;93411.44;5091966;28;20062;-43
2021/06/12 10:40:38;;;;;;;4.07;1.33;;;;;;;25.90;34.72;93415.13;5091852;28;20508;-42
2021/06/12 10:43:09;;;;;;;3.47;1.17;;;;;;;25.60;35.70;93413.28;5092114;28;20051;-41
2021/06/12 10:45:35;;;;;;;1.05;0.98;;;;;;;25.34;36.13;93410.13;5091757;28;20036;-42
2021/06/12 10:48:00;;;;;;;1.23;1.00;;;;;;;24.94;38.01;93419.84;5091938;28;20024;-41
2021/06/12 10:50:26;;;;;;;1.17;1.08;;;;;;;24.66;38.95;93420.13;5078484;28;20586;-43
2021/06/12 10:52:53;;;;;;;3.25;1.67;;;;;;;24.36;41.46;93418.13;5071325;28;20078;-41
2021/06/12 10:55:40;;;;;;;2.38;1.77;;;;;;;24.15;42.55;93424.28;5085851;28;20531;-41
2021/06/12 10:58:30;;;;;;;1.77;1.67;;;;;;;23.90;43.30;93414.72;5085042;28;20123;-37
2021/06/12 11:01:16;;;;;;;3.03;2.08;;;;;;;23.72;44.78;93402.63;5071361;28;20028;-37
2021/06/12 11:03:50;;;;;;;2.00;1.63;;;;;;;23.63;45.28;93408.56;5088840;28;20028;-43
2021/06/12 11:09:18;;;;;;;2.67;1.77;;;;;;;23.42;47.31;93404.09;5091627;28;20478;-42
2021/06/12 11:11:49;;;;;;;6.38;2.72;;;;;;;23.39;46.39;93407.47;5080354;28;20028;-40
2021/06/12 11:14:24;;;;;;;2.00;1.80;;;;;;;23.31;46.04;93407.75;5070817;28;20563;-39
2021/06/12 11:17:08;;;;;;;3.85;1.50;;;;;;;23.00;46.14;93402.09;5073036;28;20077;-36
2021/06/12 11:19:42;;;;;;;5.15;3.10;;;;;;;22.99;46.28;93395.00;5090399;28;20034;-39
2021/06/12 11:22:37;;;;;;;3.33;2.45;;;;;;;22.95;45.60;93389.91;5090704;28;20491;-38
2021/06/12 11:25:09;;;;;;;2.10;1.80;;;;;;;22.58;45.42;93390.22;5090947;28;20455;-37
2021/06/12 11:27:37;;;;;;;2.00;1.52;;;;;;;22.41;48.03;93390.78;5090714;28;20660;-41
2021/06/12 11:30:09;;;;;;;2.45;2.05;;;;;;;22.21;47.50;93372.19;5088789;28;20028;-37
2021/06/12 11:32:36;;;;;;;1.90;1.70;;;;;;;22.19;48.23;93381.25;5082390;28;20029;-37
2021/06/12 11:35:01;;;;;;;6.30;2.30;;;;;;;21.98;49.06;93383.66;5086867;28;20060;-40
2021/06/12 11:37:28;;;;;;;2.60;2.10;;;;;;;22.01;48.15;93376.78;5089853;28;20047;-42
2021/06/12 11:39:58;;;;;;;1.13;1.10;;;;;;;21.88;48.58;93376.16;5089747;28;20723;-42